Sabina, Ohio
Current Conditions -  °F | °C
As of 7:54 PM on Monday 20 Oct 2014 (Local Time) from KILN Reporting Station
Few Clouds Few Clouds  
Wind Chill: 52°   Ceiling: Unl
Heat Index: 52°   Visibility: 10mi
Dew Point: 47°   Wind: 7mph
Humidity: 83%   Direction: 210°SSW
Pressure: 29.88"   Gusts: NA
Location:  39.49°N, 83.64°W
Report Text: KILN 202354Z AUTO 21006KT 10SM FEW060 11/08 A2988 RMK AO2 LTG DSNT NW SLP129 60003 T01110083 53006
Loading
Personal Weather Stations






























Interactive Weather Map
Tropical Storm Tracking
New forecast layout! Learn more

10-Day Weather Forecast

Advertisements
Track Severe Weather on mobile